Time;durP1;ratioP1;P1;durP2;ratioP2;P2;SDS_P1;SDS_P2;PMS_P1;PMS_P2;Temp;Humidity;BMP_temperature;BMP_pressure;BME280_temperature;BME280_humidity;BME280_pressure;Samples;Min_cycle;Max_cycle;Signal;HPM_P1;HPM_P2
2021/01/14 00:02:02;;;;;;;0.00;0.00;;;2.40;1.00;;;;;;5010564;28;20417;-68
2021/01/14 00:04:28;;;;;;;0.00;0.00;;;2.40;1.00;;;;;;5010519;28;20884;-68
2021/01/14 00:06:55;;;;;;;0.00;0.00;;;2.40;1.00;;;;;;5010671;28;20421;-68
2021/01/14 00:09:21;;;;;;;0.00;0.00;;;2.20;1.00;;;;;;5013822;28;20475;-68
2021/01/14 00:11:47;;;;;;;0.00;0.00;;;2.20;1.00;;;;;;5014204;28;20437;-67
2021/01/14 00:14:13;;;;;;;0.00;0.00;;;2.20;1.00;;;;;;5013912;28;20428;-68
2021/01/14 00:16:40;;;;;;;0.00;0.00;;;2.20;1.00;;;;;;5014192;28;20824;-67
2021/01/14 00:19:06;;;;;;;0.00;0.00;;;2.20;1.00;;;;;;5014134;28;20428;-68
2021/01/14 00:21:39;;;;;;;0.00;0.00;;;2.20;1.00;;;;;;5013898;28;20412;-68
2021/01/14 00:24:06;;;;;;;0.00;0.00;;;2.20;1.00;;;;;;5013841;28;20428;-68
2021/01/14 00:26:32;;;;;;;0.00;0.00;;;2.20;1.00;;;;;;5013908;28;20438;-68
2021/01/14 00:28:58;;;;;;;0.00;0.00;;;2.20;1.00;;;;;;5014082;28;20820;-68
2021/01/14 00:31:24;;;;;;;0.00;0.00;;;2.10;1.00;;;;;;5013638;28;20490;-68
2021/01/14 00:33:51;;;;;;;0.00;0.00;;;2.10;1.00;;;;;;5013905;28;20444;-67
2021/01/14 00:36:30;;;;;;;0.00;0.00;;;2.10;1.00;;;;;;5013528;28;20417;-68
2021/01/14 00:38:56;;;;;;;0.00;0.00;;;2.10;1.00;;;;;;5013689;28;21063;-68
2021/01/14 00:41:22;;;;;;;0.00;0.00;;;2.10;1.00;;;;;;5013907;28;20427;-68
2021/01/14 00:43:48;;;;;;;0.00;0.00;;;2.00;1.00;;;;;;5013632;28;20413;-69
2021/01/14 00:46:17;;;;;;;0.00;0.00;;;1.90;1.00;;;;;;5013322;28;20421;-69
2021/01/14 00:48:43;;;;;;;0.00;0.00;;;1.90;1.00;;;;;;5013738;28;20424;-69
2021/01/14 00:51:10;;;;;;;0.00;0.00;;;1.90;1.00;;;;;;5014060;28;21051;-71
2021/01/14 00:53:37;;;;;;;0.00;0.00;;;1.90;1.00;;;;;;5014442;28;20457;-71
2021/01/14 00:56:03;;;;;;;0.00;0.00;;;1.80;1.00;;;;;;5015522;28;20495;-71
2021/01/14 00:58:29;;;;;;;0.00;0.00;;;1.80;1.00;;;;;;5016032;28;20420;-71
2021/01/14 01:00:56;;;;;;;0.00;0.00;;;1.80;1.00;;;;;;5014648;28;20416;-71
2021/01/14 01:03:22;;;;;;;0.00;0.00;;;1.80;1.00;;;;;;5014874;28;20858;-71
2021/01/14 01:05:48;;;;;;;0.00;0.00;;;1.80;1.00;;;;;;5014674;28;20478;-71
2021/01/14 01:08:15;;;;;;;0.00;0.00;;;1.80;1.00;;;;;;5015105;28;20429;-71
2021/01/14 01:10:41;;;;;;;0.00;0.00;;;1.80;1.00;;;;;;5014053;28;20901;-71
2021/01/14 01:13:07;;;;;;;0.00;0.00;;;1.70;1.00;;;;;;5013344;28;20429;-71
2021/01/14 01:15:33;;;;;;;0.00;0.00;;;1.70;1.00;;;;;;5012770;28;20983;-71
2021/01/14 01:17:59;;;;;;;0.00;0.00;;;1.80;1.00;;;;;;5013317;28;20424;-71
2021/01/14 01:20:26;;;;;;;0.00;0.00;;;1.70;1.00;;;;;;5012202;28;20432;-69
2021/01/14 01:22:52;;;;;;;0.00;0.00;;;1.70;1.00;;;;;;5012897;28;20416;-71
2021/01/14 01:25:19;;;;;;;0.00;0.00;;;1.80;1.00;;;;;;5012694;28;20416;-71
2021/01/14 01:27:45;;;;;;;0.00;0.00;;;1.70;1.00;;;;;;5013364;28;20409;-71
2021/01/14 01:30:13;;;;;;;0.00;0.00;;;1.70;1.00;;;;;;5012716;28;20417;-71
2021/01/14 01:32:39;;;;;;;0.00;0.00;;;1.70;1.00;;;;;;5013341;28;20433;-71
2021/01/14 01:35:06;;;;;;;0.00;0.00;;;1.70;1.00;;;;;;5013097;28;20412;-71
2021/01/14 01:37:33;;;;;;;0.00;0.00;;;1.80;1.00;;;;;;5013746;28;20417;-71
2021/01/14 01:39:59;;;;;;;0.00;0.00;;;1.80;1.00;;;;;;5013942;28;20773;-71
2021/01/14 01:42:26;;;;;;;0.00;0.00;;;1.70;1.00;;;;;;5014050;28;20454;-71
2021/01/14 01:44:52;;;;;;;0.00;0.00;;;1.80;1.00;;;;;;5013861;28;20425;-70
2021/01/14 01:47:18;;;;;;;0.00;0.00;;;1.80;1.00;;;;;;5013662;28;20412;-69
2021/01/14 01:49:45;;;;;;;0.00;0.00;;;1.80;1.00;;;;;;5014067;28;20910;-71
2021/01/14 01:52:11;;;;;;;0.00;0.00;;;1.80;1.00;;;;;;5013492;28;20995;-71
2021/01/14 01:54:37;;;;;;;0.00;0.00;;;1.80;1.00;;;;;;5013923;28;20413;-71
2021/01/14 01:57:05;;;;;;;0.00;0.00;;;1.80;1.00;;;;;;5013757;28;20413;-71
2021/01/14 01:59:32;;;;;;;0.00;0.00;;;1.80;1.00;;;;;;5013268;28;20435;-71
2021/01/14 02:01:58;;;;;;;0.00;0.00;;;1.80;1.00;;;;;;5014449;28;20460;-70
2021/01/14 02:04:25;;;;;;;0.00;0.00;;;1.80;1.00;;;;;;5013989;28;20435;-71
2021/01/14 02:06:57;;;;;;;0.00;0.00;;;1.80;1.00;;;;;;5014512;28;20420;-71
2021/01/14 02:09:25;;;;;;;0.00;0.00;;;1.80;1.00;;;;;;5013760;28;20778;-71
2021/01/14 02:11:59;;;;;;;0.00;0.00;;;1.80;1.00;;;;;;5014195;28;20535;-71
2021/01/14 02:14:29;;;;;;;0.00;0.00;;;1.80;1.00;;;;;;5014924;28;20786;-69
2021/01/14 02:16:56;;;;;;;0.00;0.00;;;1.70;1.00;;;;;;5015283;28;20421;-71
2021/01/14 02:19:26;;;;;;;0.00;0.00;;;1.70;1.00;;;;;;5015022;28;20413;-71
2021/01/14 02:21:57;;;;;;;0.00;0.00;;;1.70;1.00;;;;;;5013824;28;20422;-71
2021/01/14 02:24:28;;;;;;;0.00;0.00;;;1.80;1.00;;;;;;5013615;28;20789;-71
2021/01/14 02:26:57;;;;;;;0.00;0.00;;;1.80;1.00;;;;;;5014916;28;20428;-71
2021/01/14 02:29:23;;;;;;;0.00;0.00;;;1.80;1.00;;;;;;5015523;28;20470;-71
2021/01/14 02:31:49;;;;;;;0.00;0.00;;;1.80;1.00;;;;;;5014519;28;20425;-69
2021/01/14 02:34:16;;;;;;;0.00;0.00;;;1.80;1.00;;;;;;5014014;28;20413;-71
2021/01/14 02:36:42;;;;;;;0.00;0.00;;;1.80;1.00;;;;;;5014649;28;20494;-70
2021/01/14 02:39:08;;;;;;;0.00;0.00;;;1.80;1.00;;;;;;5015224;28;21085;-71
2021/01/14 02:41:34;;;;;;;0.00;0.00;;;1.70;1.00;;;;;;5016796;28;20421;-70
2021/01/14 02:44:01;;;;;;;0.00;0.00;;;1.70;1.00;;;;;;5014780;28;20409;-70
2021/01/14 02:46:27;;;;;;;0.00;0.00;;;1.70;1.00;;;;;;5013559;28;20861;-71
2021/01/14 02:49:03;;;;;;;0.00;0.00;;;1.70;1.00;;;;;;5014388;28;20417;-71
2021/01/14 02:51:41;;;;;;;0.00;0.00;;;1.70;1.00;;;;;;5014215;28;20795;-71
2021/01/14 02:54:09;;;;;;;0.00;0.00;;;1.60;1.00;;;;;;5015593;28;21069;-72
2021/01/14 02:56:37;;;;;;;0.00;0.00;;;1.60;1.00;;;;;;5016108;28;20420;-71
2021/01/14 02:59:05;;;;;;;0.00;0.00;;;1.60;1.00;;;;;;5017276;28;20417;-71
2021/01/14 03:01:31;;;;;;;0.00;0.00;;;1.60;1.00;;;;;;5017184;28;20431;-71
2021/01/14 03:03:57;;;;;;;0.00;0.00;;;1.70;1.00;;;;;;5018055;28;20428;-71
2021/01/14 03:06:23;;;;;;;0.00;0.00;;;1.70;1.00;;;;;;5017671;28;20889;-71
2021/01/14 03:08:49;;;;;;;0.00;0.00;;;1.70;1.00;;;;;;5016019;28;20463;-71
2021/01/14 03:11:16;;;;;;;0.00;0.00;;;1.60;1.00;;;;;;5016084;28;20420;-71
2021/01/14 03:13:43;;;;;;;0.00;0.00;;;1.60;1.00;;;;;;5017222;28;20951;-70
2021/01/14 03:16:10;;;;;;;0.00;0.00;;;1.60;1.00;;;;;;5018861;28;20439;-70
2021/01/14 03:18:36;;;;;;;0.00;0.00;;;1.60;1.00;;;;;;5017952;28;20420;-70
2021/01/14 03:21:02;;;;;;;0.00;0.00;;;1.70;1.00;;;;;;5015878;28;20415;-70
2021/01/14 03:23:30;;;;;;;0.00;0.00;;;1.60;1.00;;;;;;5017253;28;20421;-71
2021/01/14 03:25:56;;;;;;;0.00;0.00;;;1.60;1.00;;;;;;5019373;28;20475;-71
2021/01/14 03:28:22;;;;;;;0.00;0.00;;;1.60;1.00;;;;;;5016347;28;20416;-71
2021/01/14 03:30:48;;;;;;;0.00;0.00;;;1.60;1.00;;;;;;5015595;28;20462;-71
2021/01/14 03:33:15;;;;;;;0.00;0.00;;;1.60;1.00;;;;;;5016600;28;20424;-71
2021/01/14 03:35:41;;;;;;;0.00;0.00;;;1.60;1.00;;;;;;5017161;28;20755;-71
2021/01/14 03:38:07;;;;;;;0.00;0.00;;;1.60;1.00;;;;;;5017338;28;20424;-70
2021/01/14 03:40:33;;;;;;;0.00;0.00;;;1.50;1.00;;;;;;5018575;28;20428;-70
2021/01/14 03:42:59;;;;;;;0.00;0.00;;;1.60;1.00;;;;;;5020180;28;20420;-70
2021/01/14 03:45:26;;;;;;;0.00;0.00;;;1.60;1.00;;;;;;5025742;28;20428;-70
2021/01/14 03:47:52;;;;;;;0.00;0.00;;;1.60;1.00;;;;;;5022374;28;20478;-70
2021/01/14 03:50:19;;;;;;;0.00;0.00;;;1.60;1.00;;;;;;5018965;28;20423;-70
2021/01/14 03:52:45;;;;;;;0.00;0.00;;;1.70;1.00;;;;;;5019882;28;20436;-69
2021/01/14 03:55:11;;;;;;;0.00;0.00;;;1.60;1.00;;;;;;5016631;28;20792;-69
2021/01/14 03:57:37;;;;;;;0.00;0.00;;;1.60;1.00;;;;;;5019231;28;20827;-69
2021/01/14 04:00:05;;;;;;;0.00;0.00;;;1.60;1.00;;;;;;5020613;28;20421;-70
2021/01/14 04:02:32;;;;;;;0.00;0.00;;;1.70;1.00;;;;;;5024407;28;20417;-70
2021/01/14 04:04:58;;;;;;;0.00;0.00;;;1.60;1.00;;;;;;5024093;28;20412;-71
2021/01/14 04:07:25;;;;;;;0.00;0.00;;;1.60;1.00;;;;;;5024111;28;20421;-70
2021/01/14 04:09:51;;;;;;;0.00;0.00;;;1.50;1.00;;;;;;5023026;28;20420;-71
2021/01/14 04:12:17;;;;;;;0.00;0.00;;;1.50;1.00;;;;;;5021469;28;20439;-71
2021/01/14 04:14:50;;;;;;;0.00;0.00;;;1.60;1.00;;;;;;5022746;28;20417;-70
2021/01/14 04:17:16;;;;;;;0.00;0.00;;;1.50;1.00;;;;;;5015495;28;20512;-70
2021/01/14 04:19:42;;;;;;;0.00;0.00;;;1.60;1.00;;;;;;5015683;28;20424;-70
2021/01/14 04:22:08;;;;;;;0.00;0.00;;;1.60;1.00;;;;;;5021560;28;20413;-68
2021/01/14 04:24:37;;;;;;;0.00;0.00;;;1.50;1.00;;;;;;5022870;28;20420;-70
2021/01/14 04:27:04;;;;;;;0.00;0.00;;;1.60;1.00;;;;;;5023311;28;20455;-70
2021/01/14 04:29:30;;;;;;;0.00;0.00;;;1.50;1.00;;;;;;5021059;28;20471;-70
2021/01/14 04:31:56;;;;;;;0.00;0.00;;;1.50;1.00;;;;;;5021621;28;20437;-69
2021/01/14 04:34:22;;;;;;;0.00;0.00;;;1.50;1.00;;;;;;5022364;28;20470;-69
2021/01/14 04:36:55;;;;;;;0.00;0.00;;;1.60;1.00;;;;;;5022984;28;20412;-68
2021/01/14 04:39:21;;;;;;;0.00;0.00;;;1.60;1.00;;;;;;5021829;28;20900;-71
2021/01/14 04:41:53;;;;;;;0.00;0.00;;;1.60;1.00;;;;;;5021896;28;20421;-70
2021/01/14 04:44:20;;;;;;;0.00;0.00;;;1.70;1.00;;;;;;5021284;28;20416;-70
2021/01/14 04:46:49;;;;;;;0.00;0.00;;;1.60;1.00;;;;;;5020629;28;20425;-71
2021/01/14 04:49:16;;;;;;;0.00;0.00;;;1.50;1.00;;;;;;5019118;28;20512;-70
2021/01/14 04:51:45;;;;;;;0.00;0.00;;;1.60;1.00;;;;;;5013265;28;20428;-70
2021/01/14 04:54:14;;;;;;;0.00;0.00;;;1.40;1.00;;;;;;5013361;28;20821;-70
2021/01/14 04:56:40;;;;;;;0.00;0.00;;;1.50;1.00;;;;;;5012996;28;20951;-70
2021/01/14 04:59:07;;;;;;;0.00;0.00;;;1.50;1.00;;;;;;5013488;28;20412;-70
2021/01/14 05:01:35;;;;;;;0.00;0.00;;;1.60;1.00;;;;;;5013573;28;20821;-71
2021/01/14 05:04:05;;;;;;;0.00;0.00;;;1.40;1.00;;;;;;5013086;28;20515;-71
2021/01/14 05:06:36;;;;;;;0.00;0.00;;;1.30;1.00;;;;;;5013048;28;20416;-70
2021/01/14 05:09:05;;;;;;;0.00;0.00;;;1.40;1.00;;;;;;5012906;28;20478;-72
2021/01/14 05:11:39;;;;;;;0.00;0.00;;;1.50;1.00;;;;;;5013186;28;20424;-71
2021/01/14 05:14:06;;;;;;;0.00;0.00;;;1.50;1.00;;;;;;5013042;28;20435;-70
2021/01/14 05:16:33;;;;;;;0.00;0.00;;;1.50;1.00;;;;;;5012951;28;20424;-71
2021/01/14 05:18:59;;;;;;;0.00;0.00;;;1.60;1.00;;;;;;5013096;28;20423;-70
2021/01/14 05:21:31;;;;;;;0.00;0.00;;;1.40;1.00;;;;;;5004881;28;20426;-70
2021/01/14 05:24:08;;;;;;;0.00;0.00;;;1.40;1.00;;;;;;4996859;28;20420;-70
2021/01/14 05:26:34;;;;;;;0.00;0.00;;;1.40;1.00;;;;;;5012241;28;21063;-71
2021/01/14 05:29:11;;;;;;;0.00;0.00;;;1.50;1.00;;;;;;5012869;28;20423;-72
2021/01/14 05:31:38;;;;;;;0.00;0.00;;;1.50;1.00;;;;;;5012233;28;20435;-72
2021/01/14 05:34:04;;;;;;;0.00;0.00;;;1.40;1.00;;;;;;5012289;28;20424;-72
2021/01/14 05:36:52;;;;;;;0.00;0.00;;;1.50;1.00;;;;;;5012465;28;20420;-72
2021/01/14 05:39:18;;;;;;;0.00;0.00;;;1.40;1.00;;;;;;5012413;28;20415;-70
2021/01/14 05:41:46;;;;;;;0.00;0.00;;;1.40;1.00;;;;;;5011704;28;20448;-70
2021/01/14 05:44:12;;;;;;;0.00;0.00;;;1.30;1.00;;;;;;5012330;28;20479;-70
2021/01/14 05:46:39;;;;;;;0.00;0.00;;;1.40;1.00;;;;;;5012016;28;20408;-70
2021/01/14 05:49:09;;;;;;;0.00;0.00;;;1.30;1.00;;;;;;5012525;28;20458;-70
2021/01/14 05:51:35;;;;;;;0.00;0.00;;;1.40;1.00;;;;;;5012206;28;20432;-70
2021/01/14 05:54:04;;;;;;;0.00;0.00;;;1.30;1.00;;;;;;5012347;28;20417;-69
2021/01/14 05:56:41;;;;;;;0.00;0.00;;;1.20;1.00;;;;;;5011932;28;20413;-69
2021/01/14 05:59:09;;;;;;;0.00;0.00;;;1.30;1.00;;;;;;5012070;28;20421;-70
2021/01/14 06:01:36;;;;;;;0.00;0.00;;;1.30;1.00;;;;;;5012243;28;20793;-70
2021/01/14 06:04:16;;;;;;;0.00;0.00;;;1.40;1.00;;;;;;5012065;28;20424;-71
2021/01/14 06:06:44;;;;;;;0.00;0.00;;;1.40;1.00;;;;;;5010896;28;20963;-69
2021/01/14 06:09:12;;;;;;;0.00;0.00;;;1.40;1.00;;;;;;5012148;28;20563;-70
2021/01/14 06:11:38;;;;;;;0.00;0.00;;;1.40;1.00;;;;;;5011312;28;20452;-70
2021/01/14 06:14:05;;;;;;;0.00;0.00;;;1.50;1.00;;;;;;5012018;28;20417;-69
2021/01/14 06:16:47;;;;;;;0.00;0.00;;;1.50;1.00;;;;;;5011484;28;20471;-68
2021/01/14 06:19:14;;;;;;;0.00;0.00;;;1.50;1.00;;;;;;5011720;28;20496;-69
2021/01/14 06:21:45;;;;;;;0.00;0.00;;;1.50;1.00;;;;;;5011524;28;20443;-70
2021/01/14 06:24:19;;;;;;;0.00;0.00;;;1.40;1.00;;;;;;5011438;28;20475;-69
2021/01/14 06:26:46;;;;;;;0.00;0.00;;;1.40;1.00;;;;;;5011444;28;20428;-67
2021/01/14 06:29:17;;;;;;;0.00;0.00;;;1.40;1.00;;;;;;5011283;28;20413;-70
2021/01/14 06:31:43;;;;;;;0.00;0.00;;;1.40;1.00;;;;;;5011053;28;20429;-69
2021/01/14 06:34:10;;;;;;;0.00;0.00;;;1.40;1.00;;;;;;4998710;28;20465;-69
2021/01/14 06:36:40;;;;;;;0.00;0.00;;;1.40;1.00;;;;;;4991206;28;20418;-71
2021/01/14 06:39:12;;;;;;;0.00;0.00;;;1.40;1.00;;;;;;4992017;28;20513;-70
2021/01/14 06:41:40;;;;;;;0.00;0.00;;;1.30;1.00;;;;;;4991666;28;20480;-71
2021/01/14 06:44:08;;;;;;;0.00;0.00;;;1.30;1.00;;;;;;4991995;28;20426;-72
2021/01/14 06:46:35;;;;;;;0.00;0.00;;;1.30;1.00;;;;;;4991474;28;20430;-72
2021/01/14 06:49:08;;;;;;;0.00;0.00;;;1.40;1.00;;;;;;4989941;28;20473;-71
2021/01/14 06:54:57;;;;;;;0.00;0.00;;;1.40;1.00;;;;;;4990971;28;20430;-72
2021/01/14 06:57:35;;;;;;;0.00;0.00;;;1.30;1.00;;;;;;4991006;28;21035;-71
2021/01/14 07:00:03;;;;;;;0.00;0.00;;;1.10;1.90;;;;;;4990943;28;20884;-73
2021/01/14 07:02:52;;;;;;;0.00;0.00;;;1.00;53.00;;;;;;4991162;28;20415;-71
2021/01/14 07:05:28;;;;;;;0.00;0.00;;;1.00;99.90;;;;;;4991116;28;20497;-72
2021/01/14 07:11:09;;;;;;;0.00;0.00;;;0.90;99.90;;;;;;4927390;29;20840;-70
2021/01/14 07:13:37;;;;;;;0.00;0.00;;;1.00;99.90;;;;;;4989914;28;20434;-70
2021/01/14 07:19:27;;;;;;;0.00;0.00;;;1.00;99.90;;;;;;4994643;28;20984;-70
2021/01/14 07:28:40;;;;;;;0.00;0.00;;;2.20;99.90;;;;;;4995597;28;20440;-71
2021/01/14 07:31:20;;;;;;;0.00;0.00;;;2.30;99.90;;;;;;4995364;28;20464;-69
2021/01/14 07:37:18;;;;;;;0.00;0.00;;;1.70;1.00;;;;;;4993390;28;20446;-70
2021/01/14 07:43:04;;;;;;;0.00;0.00;;;1.30;1.00;;;;;;4937876;28;20499;-73
2021/01/14 07:45:44;;;;;;;0.00;0.00;;;0.90;1.00;;;;;;4996174;28;20433;-69
2021/01/14 07:48:22;;;;;;;0.00;0.00;;;0.80;99.10;;;;;;4997993;28;20782;-74
2021/01/14 08:01:05;;;;;;;0.00;0.00;;;0.80;54.20;;;;;;4955876;28;20849;-70
2021/01/14 08:03:37;;;;;;;0.00;0.00;;;1.50;21.50;;;;;;4955526;29;21068;-70
2021/01/14 08:06:27;;;;;;;0.00;0.00;;;0.80;88.60;;;;;;4995905;28;20480;-71
2021/01/14 08:09:21;;;;;;;0.00;0.00;;;0.90;30.20;;;;;;4996407;28;20430;-69
2021/01/14 08:11:58;;;;;;;0.00;0.00;;;0.90;1.00;;;;;;4993680;28;20509;-67
2021/01/14 08:14:36;;;;;;;0.00;0.00;;;0.80;69.30;;;;;;4994591;28;20422;-69
2021/01/14 08:17:20;;;;;;;0.00;0.00;;;0.90;99.90;;;;;;4995310;28;20783;-68
2021/01/14 08:19:46;;;;;;;0.00;0.00;;;0.90;16.20;;;;;;4996253;28;20477;-69
2021/01/14 08:22:13;;;;;;;0.00;0.00;;;0.90;1.00;;;;;;4995544;28;20422;-69
2021/01/14 08:24:51;;;;;;;0.00;0.00;;;0.80;1.00;;;;;;4994859;28;20955;-68
2021/01/14 08:28:02;;;;;;;0.00;0.00;;;0.70;1.00;;;;;;4994558;28;20426;-71
2021/01/14 08:30:28;;;;;;;0.00;0.00;;;0.80;3.40;;;;;;4994125;28;20493;-71
2021/01/14 08:33:08;;;;;;;0.00;0.00;;;0.80;1.00;;;;;;4993150;28;20929;-72
2021/01/14 08:35:36;;;;;;;0.00;0.00;;;0.80;1.00;;;;;;4994041;28;20780;-71
2021/01/14 08:38:12;;;;;;;0.00;0.00;;;0.80;1.00;;;;;;4993642;28;20473;-73
2021/01/14 08:40:40;;;;;;;0.00;0.00;;;0.70;1.00;;;;;;4993837;28;20421;-72
2021/01/14 08:43:07;;;;;;;0.00;0.00;;;0.60;1.00;;;;;;4994074;28;20476;-73
2021/01/14 08:45:36;;;;;;;0.00;0.00;;;0.60;1.00;;;;;;4993278;28;20420;-68
2021/01/14 08:48:08;;;;;;;0.00;0.00;;;0.70;1.00;;;;;;4993464;28;20422;-67
2021/01/14 08:50:49;;;;;;;0.00;0.00;;;0.70;1.00;;;;;;4993523;28;20422;-70
2021/01/14 08:53:30;;;;;;;0.00;0.00;;;0.70;1.00;;;;;;4992745;28;20772;-74
2021/01/14 08:55:58;;;;;;;0.00;0.00;;;0.80;1.00;;;;;;4993379;28;20458;-68
2021/01/14 08:58:42;;;;;;;0.00;0.00;;;0.80;1.00;;;;;;4993305;28;21025;-69
2021/01/14 09:01:10;;;;;;;0.00;0.00;;;0.90;1.00;;;;;;4993056;28;20430;-68
2021/01/14 09:03:41;;;;;;;0.00;0.00;;;0.90;1.00;;;;;;4993794;28;20429;-68
2021/01/14 09:06:07;;;;;;;0.00;0.00;;;0.90;1.00;;;;;;4993168;28;20433;-69
2021/01/14 09:08:34;;;;;;;0.00;0.00;;;0.90;1.00;;;;;;4992701;28;20432;-68
2021/01/14 09:11:00;;;;;;;0.00;0.00;;;0.90;1.00;;;;;;4993094;28;20791;-68
2021/01/14 09:13:27;;;;;;;0.00;0.00;;;0.90;1.00;;;;;;4992957;28;20434;-68
2021/01/14 09:15:55;;;;;;;0.00;0.00;;;1.00;1.00;;;;;;4992823;28;20783;-68
2021/01/14 09:18:30;;;;;;;0.00;0.00;;;1.00;1.00;;;;;;4992648;28;20410;-68
2021/01/14 09:20:57;;;;;;;0.00;0.00;;;1.10;1.00;;;;;;4992817;28;20790;-66
2021/01/14 09:23:25;;;;;;;0.00;0.00;;;1.10;1.00;;;;;;4992531;28;20429;-68
2021/01/14 09:25:53;;;;;;;0.00;0.00;;;1.20;1.00;;;;;;4992710;28;20477;-69
2021/01/14 09:28:31;;;;;;;0.00;0.00;;;1.30;1.00;;;;;;4992328;28;21126;-71
2021/01/14 09:31:00;;;;;;;0.00;0.00;;;1.40;1.00;;;;;;4992700;28;20554;-71
2021/01/14 09:33:27;;;;;;;0.00;0.00;;;1.50;1.00;;;;;;4992415;28;20491;-71
2021/01/14 09:36:06;;;;;;;0.00;0.00;;;1.60;1.00;;;;;;4992395;28;20433;-71
2021/01/14 09:38:43;;;;;;;0.00;0.00;;;1.60;1.00;;;;;;4992398;28;20475;-70
2021/01/14 09:41:10;;;;;;;0.00;0.00;;;1.70;1.00;;;;;;4991480;28;20462;-70
2021/01/14 09:43:40;;;;;;;0.00;0.00;;;1.70;1.00;;;;;;4992830;28;20890;-71
2021/01/14 09:46:12;;;;;;;0.00;0.00;;;1.90;1.00;;;;;;4992194;28;20425;-71
2021/01/14 09:48:38;;;;;;;0.00;0.00;;;1.90;1.00;;;;;;4992934;28;20525;-71
2021/01/14 09:51:13;;;;;;;0.00;0.00;;;1.90;1.00;;;;;;4992867;28;20441;-71
2021/01/14 09:53:48;;;;;;;0.00;0.00;;;1.90;1.00;;;;;;4992193;28;20521;-71
2021/01/14 09:56:20;;;;;;;0.00;0.00;;;2.00;1.00;;;;;;4991949;28;20472;-69
2021/01/14 09:58:50;;;;;;;0.00;0.00;;;2.00;99.90;;;;;;4991879;28;20430;-68
2021/01/14 10:01:19;;;;;;;0.00;0.00;;;1.90;99.90;;;;;;4992191;28;20902;-69
2021/01/14 10:03:51;;;;;;;0.00;0.00;;;2.00;99.90;;;;;;4992490;28;20422;-71
2021/01/14 10:06:21;;;;;;;0.00;0.00;;;2.10;1.00;;;;;;4992444;28;20832;-69
2021/01/14 10:08:49;;;;;;;0.00;0.00;;;2.30;1.00;;;;;;4992442;28;20430;-69
2021/01/14 10:11:18;;;;;;;0.00;0.00;;;2.40;99.90;;;;;;4992052;28;20422;-70
2021/01/14 10:17:09;;;;;;;0.00;0.00;;;2.50;99.90;;;;;;4936327;28;20490;-72
2021/01/14 10:19:37;;;;;;;0.00;0.00;;;2.50;1.00;;;;;;4991561;28;20433;-71
2021/01/14 10:22:06;;;;;;;0.00;0.00;;;2.50;1.00;;;;;;4991784;28;20426;-70
2021/01/14 10:24:33;;;;;;;0.00;0.00;;;2.60;1.00;;;;;;4991898;28;20426;-69
2021/01/14 10:27:11;;;;;;;0.00;0.00;;;2.50;1.00;;;;;;4991385;28;20843;-68
2021/01/14 10:29:40;;;;;;;0.00;0.00;;;2.60;99.90;;;;;;4991577;28;20422;-68
2021/01/14 10:32:08;;;;;;;0.00;0.00;;;2.70;99.90;;;;;;4991424;28;20844;-67
2021/01/14 10:34:42;;;;;;;0.00;0.00;;;2.80;99.90;;;;;;4991676;28;20418;-68
2021/01/14 10:37:24;;;;;;;0.00;0.00;;;3.00;99.90;;;;;;4991326;28;20899;-70
2021/01/14 10:39:51;;;;;;;0.00;0.00;;;3.00;99.90;;;;;;4991190;28;20451;-69
2021/01/14 10:42:32;;;;;;;0.00;0.00;;;3.10;99.90;;;;;;4991475;28;20979;-68
2021/01/14 10:45:00;;;;;;;0.00;0.00;;;3.00;99.90;;;;;;4990992;28;20426;-71
2021/01/14 10:47:27;;;;;;;0.00;0.00;;;3.10;99.90;;;;;;4991279;28;20426;-69
2021/01/14 10:49:54;;;;;;;0.00;0.00;;;3.10;99.90;;;;;;4991242;28;20456;-70
2021/01/14 10:52:20;;;;;;;0.00;0.00;;;3.10;99.90;;;;;;4990968;28;20482;-71
2021/01/14 10:55:00;;;;;;;0.00;0.00;;;3.40;99.90;;;;;;4991305;28;20427;-72
2021/01/14 10:57:50;;;;;;;0.00;0.00;;;3.20;99.90;;;;;;4990978;28;20421;-70
2021/01/14 11:00:18;;;;;;;0.00;0.00;;;3.00;99.90;;;;;;4991397;28;20554;-68
2021/01/14 11:02:45;;;;;;;0.00;0.00;;;3.00;99.90;;;;;;4991015;28;20418;-68
2021/01/14 11:05:12;;;;;;;0.00;0.00;;;3.10;99.90;;;;;;4990945;28;20426;-68
2021/01/14 11:07:38;;;;;;;0.00;0.00;;;3.30;99.90;;;;;;4991102;28;20823;-69
2021/01/14 11:10:11;;;;;;;0.00;0.00;;;3.10;99.90;;;;;;4991681;28;20421;-69
2021/01/14 11:13:01;;;;;;;0.00;0.00;;;2.90;99.90;;;;;;4991242;28;20452;-67
2021/01/14 11:15:27;;;;;;;0.00;0.00;;;3.00;99.90;;;;;;4990759;28;20410;-67
2021/01/14 11:17:54;;;;;;;0.00;0.00;;;3.10;99.90;;;;;;4990729;28;20418;-69
2021/01/14 11:20:20;;;;;;;0.00;0.00;;;3.10;99.90;;;;;;4990710;28;20438;-67
2021/01/14 11:22:47;;;;;;;0.00;0.00;;;3.00;99.90;;;;;;4991056;28;20426;-68
2021/01/14 11:25:14;;;;;;;0.00;0.00;;;3.00;99.90;;;;;;4990679;28;20425;-68
2021/01/14 11:27:43;;;;;;;0.00;0.00;;;3.10;1.00;;;;;;4990786;28;20428;-70
2021/01/14 11:30:10;;;;;;;0.00;0.00;;;3.10;99.90;;;;;;4990898;28;20425;-68
2021/01/14 11:32:58;;;;;;;0.00;0.00;;;2.90;99.90;;;;;;4991036;28;20493;-70
2021/01/14 11:35:24;;;;;;;0.00;0.00;;;3.00;99.90;;;;;;4990683;28;20413;-68
2021/01/14 11:37:51;;;;;;;0.00;0.00;;;3.00;99.90;;;;;;4990642;28;20418;-68
2021/01/14 11:40:18;;;;;;;0.00;0.00;;;3.00;99.90;;;;;;4990876;28;20421;-67
2021/01/14 11:42:44;;;;;;;0.00;0.00;;;3.10;99.90;;;;;;4990541;28;20410;-67
2021/01/14 11:45:11;;;;;;;0.00;0.00;;;3.20;99.90;;;;;;4990914;28;20422;-67
2021/01/14 11:47:39;;;;;;;0.00;0.00;;;3.20;99.90;;;;;;4990819;28;20786;-69
2021/01/14 11:50:06;;;;;;;0.00;0.00;;;3.30;99.90;;;;;;4990847;28;20438;-68
2021/01/14 11:52:36;;;;;;;0.00;0.00;;;3.40;99.90;;;;;;4990732;28;20469;-69
2021/01/14 11:55:03;;;;;;;0.00;0.00;;;3.50;99.90;;;;;;4991828;28;20443;-68
2021/01/14 11:57:30;;;;;;;0.00;0.00;;;3.30;99.90;;;;;;4995590;28;20418;-67
2021/01/14 11:59:56;;;;;;;0.00;0.00;;;3.10;99.90;;;;;;4994062;28;20429;-68
2021/01/14 12:02:22;;;;;;;0.00;0.00;;;3.10;99.90;;;;;;4991074;28;20414;-66
2021/01/14 12:04:49;;;;;;;0.00;0.00;;;3.00;99.90;;;;;;4995820;28;20422;-68
2021/01/14 12:07:15;;;;;;;0.00;0.00;;;2.80;99.90;;;;;;4995622;28;20449;-67
2021/01/14 12:09:41;;;;;;;0.00;0.00;;;2.80;99.90;;;;;;4995390;28;20910;-67
2021/01/14 12:12:07;;;;;;;0.00;0.00;;;2.70;99.90;;;;;;4995037;28;20429;-68
2021/01/14 12:14:35;;;;;;;0.00;0.00;;;2.70;99.90;;;;;;4994929;28;20425;-69
2021/01/14 12:17:02;;;;;;;0.00;0.00;;;2.50;99.90;;;;;;4994671;28;20423;-71
2021/01/14 12:19:29;;;;;;;0.00;0.00;;;2.40;99.90;;;;;;4994762;28;20465;-69
2021/01/14 12:22:03;;;;;;;0.00;0.00;;;2.60;99.90;;;;;;4994519;28;20426;-69
2021/01/14 12:24:29;;;;;;;0.00;0.00;;;2.70;99.90;;;;;;4993878;28;20426;-69
2021/01/14 12:26:56;;;;;;;0.00;0.00;;;2.70;99.90;;;;;;4993991;28;20434;-70
2021/01/14 12:29:22;;;;;;;0.00;0.00;;;2.70;99.90;;;;;;4993866;28;20453;-70
2021/01/14 12:31:50;;;;;;;0.00;0.00;;;2.80;99.90;;;;;;4993753;28;20429;-69
2021/01/14 12:34:20;;;;;;;0.00;0.00;;;2.70;99.90;;;;;;4993716;28;20441;-69
2021/01/14 12:36:47;;;;;;;0.00;0.00;;;2.60;99.90;;;;;;4992855;28;20427;-70
2021/01/14 12:39:18;;;;;;;0.00;0.00;;;2.80;99.90;;;;;;4993673;28;20433;-69
2021/01/14 12:41:44;;;;;;;0.00;0.00;;;2.40;99.90;;;;;;4993034;28;20430;-68
2021/01/14 12:44:10;;;;;;;0.00;0.00;;;2.50;99.90;;;;;;4993740;28;20426;-69
2021/01/14 12:46:38;;;;;;;0.00;0.00;;;2.50;99.90;;;;;;4993354;28;20422;-68
2021/01/14 12:49:06;;;;;;;0.00;0.00;;;2.50;99.90;;;;;;4993012;28;20422;-68
2021/01/14 12:51:33;;;;;;;0.00;0.00;;;2.50;1.00;;;;;;4993224;28;20787;-68
2021/01/14 12:54:00;;;;;;;0.00;0.00;;;2.50;99.90;;;;;;4993711;28;20438;-70
2021/01/14 12:56:27;;;;;;;0.00;0.00;;;2.70;1.00;;;;;;4993036;28;20445;-71
2021/01/14 12:58:54;;;;;;;0.00;0.00;;;3.10;27.80;;;;;;4993605;28;20468;-71
2021/01/14 13:01:27;;;;;;;0.00;0.00;;;3.30;1.00;;;;;;4993408;28;20457;-67
2021/01/14 13:03:55;;;;;;;0.00;0.00;;;3.20;99.90;;;;;;4993657;28;20411;-68
2021/01/14 13:06:26;;;;;;;0.00;0.00;;;2.90;99.90;;;;;;4994499;28;20423;-68
2021/01/14 13:08:52;;;;;;;0.00;0.00;;;2.90;99.90;;;;;;4993286;28;20449;-68
2021/01/14 13:11:18;;;;;;;0.00;0.00;;;2.80;99.90;;;;;;4992975;28;20480;-67
2021/01/14 13:13:44;;;;;;;0.00;0.00;;;2.70;99.90;;;;;;4993259;28;20441;-67
2021/01/14 13:16:11;;;;;;;0.00;0.00;;;2.60;99.90;;;;;;4992978;28;20429;-67
2021/01/14 13:18:37;;;;;;;0.00;0.00;;;2.50;99.90;;;;;;4992661;28;20423;-67
2021/01/14 13:21:03;;;;;;;0.00;0.00;;;2.50;99.90;;;;;;4993124;28;20418;-69
2021/01/14 13:23:30;;;;;;;0.00;0.00;;;2.40;99.90;;;;;;4993216;28;20415;-70
2021/01/14 13:25:56;;;;;;;0.00;0.00;;;2.40;99.90;;;;;;4992647;28;20834;-70
2021/01/14 13:28:27;;;;;;;0.00;0.00;;;2.50;1.00;;;;;;4992665;28;20422;-70
2021/01/14 13:31:23;;;;;;;0.00;0.00;;;2.50;1.00;;;;;;4992347;28;20441;-72
2021/01/14 13:37:17;;;;;;;0.00;0.00;;;2.40;99.90;;;;;;4992159;28;20500;-68
2021/01/14 13:39:44;;;;;;;0.00;0.00;;;2.40;1.00;;;;;;4992768;28;20967;-67
2021/01/14 13:42:11;;;;;;;0.00;0.00;;;2.50;1.00;;;;;;4993076;28;20422;-68
2021/01/14 13:44:37;;;;;;;0.00;0.00;;;2.60;1.00;;;;;;4992978;28;20974;-67
2021/01/14 13:47:03;;;;;;;0.00;0.00;;;2.60;99.90;;;;;;4992226;28;20445;-69
2021/01/14 13:49:30;;;;;;;0.00;0.00;;;2.60;1.00;;;;;;4992255;28;20474;-69
2021/01/14 13:51:57;;;;;;;0.00;0.00;;;2.60;1.00;;;;;;4992263;28;20423;-68
2021/01/14 13:54:23;;;;;;;0.00;0.00;;;2.60;1.00;;;;;;4992279;28;20430;-68
2021/01/14 13:57:13;;;;;;;0.00;0.00;;;2.60;1.00;;;;;;4992763;28;20418;-69